Time;durP1;ratioP1;P1;durP2;ratioP2;P2;SDS_P1;SDS_P2;PMS_P1;PMS_P2;Temp;Humidity;BMP_temperature;BMP_pressure;BME280_temperature;BME280_humidity;BME280_pressure;Samples;Min_cycle;Max_cycle;Signal;HPM_P1;HPM_P2
2024/01/26 00:02:14;;;;;;;13.88;4.20;;;;;;;4.67;100.00;101022.38;5548933;32;34118;-64
2024/01/26 00:05:17;;;;;;;14.68;3.72;;;;;;;4.61;100.00;101021.06;5548851;32;34118;-63
2024/01/26 00:08:20;;;;;;;13.82;3.42;;;;;;;4.51;100.00;101014.81;5548693;32;34222;-63
2024/01/26 00:11:23;;;;;;;15.10;4.00;;;;;;;4.55;100.00;101024.13;5548809;32;34240;-63
2024/01/26 00:14:26;;;;;;;15.48;3.95;;;;;;;4.64;100.00;101018.22;5548626;32;34041;-64
2024/01/26 00:17:29;;;;;;;14.18;4.03;;;;;;;4.51;100.00;101014.81;5548863;32;34135;-65
2024/01/26 00:20:32;;;;;;;15.13;3.97;;;;;;;4.46;100.00;101016.94;5548241;32;34081;-63
2024/01/26 00:23:35;;;;;;;14.57;3.75;;;;;;;4.47;100.00;101015.12;5548468;32;34139;-63
2024/01/26 00:26:38;;;;;;;12.45;3.70;;;;;;;4.47;100.00;101028.28;5548706;32;34075;-65
2024/01/26 00:29:41;;;;;;;13.00;4.05;;;;;;;4.41;100.00;101023.47;5548443;32;34112;-63
2024/01/26 00:32:43;;;;;;;13.68;3.70;;;;;;;4.42;100.00;101020.72;5548121;32;34037;-63
2024/01/26 00:35:46;;;;;;;13.80;3.87;;;;;;;4.38;100.00;101020.13;5548199;32;34035;-65
2024/01/26 00:38:49;;;;;;;16.17;3.97;;;;;;;4.35;100.00;101030.88;5550982;32;34350;-63
2024/01/26 00:41:52;;;;;;;11.48;3.22;;;;;;;4.37;100.00;101034.22;5551125;32;34098;-63
2024/01/26 00:44:54;;;;;;;13.45;3.87;;;;;;;4.36;100.00;101036.94;5550756;32;34034;-63
2024/01/26 00:47:57;;;;;;;13.88;3.78;;;;;;;4.35;100.00;101037.91;5550716;32;34103;-63
2024/01/26 00:51:01;;;;;;;12.73;3.95;;;;;;;4.32;100.00;101046.00;5550888;32;34127;-63
2024/01/26 00:54:04;;;;;;;15.23;3.83;;;;;;;4.26;100.00;101038.59;5550881;32;34187;-62
2024/01/26 00:57:07;;;;;;;14.57;3.37;;;;;;;4.21;100.00;101031.00;5550898;32;34788;-63
2024/01/26 01:00:10;;;;;;;13.18;3.83;;;;;;;4.20;100.00;101028.53;5550852;32;34231;-62
2024/01/26 01:03:14;;;;;;;14.20;4.10;;;;;;;4.15;100.00;101015.72;5550872;32;34371;-63
2024/01/26 01:06:17;;;;;;;14.48;4.12;;;;;;;4.17;100.00;101015.59;5550836;32;34796;-62
2024/01/26 01:09:19;;;;;;;13.60;3.75;;;;;;;4.21;100.00;101012.63;5550403;32;34254;-64
2024/01/26 01:12:22;;;;;;;13.57;4.12;;;;;;;4.22;100.00;101009.06;5550585;32;34703;-63
2024/01/26 01:15:25;;;;;;;16.75;4.90;;;;;;;4.09;100.00;101017.94;5550688;32;34853;-63
2024/01/26 01:18:28;;;;;;;17.25;4.65;;;;;;;4.01;100.00;101009.78;5550942;32;34142;-63
2024/01/26 01:21:31;;;;;;;17.00;4.22;;;;;;;3.93;100.00;101026.06;5550561;32;34145;-63
2024/01/26 01:24:34;;;;;;;11.77;3.87;;;;;;;3.90;100.00;101023.69;5550838;32;34720;-63
2024/01/26 01:27:36;;;;;;;19.27;4.55;;;;;;;3.85;100.00;101036.28;5550574;32;34704;-63
2024/01/26 01:30:39;;;;;;;15.90;4.20;;;;;;;3.83;100.00;101040.78;5550060;32;33797;-63
2024/01/26 01:33:42;;;;;;;16.40;4.10;;;;;;;3.83;100.00;101043.41;5550867;32;34188;-63
2024/01/26 01:36:45;;;;;;;16.45;4.55;;;;;;;3.74;100.00;101036.19;5550711;32;35570;-63
2024/01/26 01:39:49;;;;;;;18.50;4.30;;;;;;;3.69;100.00;101033.91;5550273;32;34357;-63
2024/01/26 01:42:51;;;;;;;16.17;4.32;;;;;;;3.69;100.00;101036.53;5550426;32;34159;-63
2024/01/26 01:45:54;;;;;;;17.27;4.72;;;;;;;3.67;100.00;101027.94;5550420;32;35111;-62
2024/01/26 01:48:57;;;;;;;14.85;4.28;;;;;;;3.60;100.00;101041.56;5549784;32;34055;-62
2024/01/26 01:52:03;;;;;;;17.48;4.57;;;;;;;3.62;100.00;101024.81;5550244;32;34150;-62
2024/01/26 01:55:10;;;;;;;15.32;4.43;;;;;;;3.64;100.00;101009.78;5550605;32;34234;-63
2024/01/26 01:58:15;;;;;;;15.43;4.30;;;;;;;3.55;100.00;101023.53;5550104;32;34059;-63
2024/01/26 02:01:18;;;;;;;14.85;4.50;;;;;;;3.60;100.00;101017.97;5550155;32;34736;-63
2024/01/26 02:04:22;;;;;;;17.62;4.45;;;;;;;3.55;100.00;101020.06;5550176;32;34256;-63
2024/01/26 02:07:25;;;;;;;15.38;4.03;;;;;;;3.44;100.00;101011.16;5550115;32;34154;-63
2024/01/26 02:10:28;;;;;;;14.40;4.37;;;;;;;3.43;100.00;101024.41;5550292;32;34206;-65
2024/01/26 02:13:30;;;;;;;18.08;4.45;;;;;;;3.52;100.00;101017.69;5550039;32;34050;-63
2024/01/26 02:16:33;;;;;;;13.52;4.22;;;;;;;3.49;100.00;101034.44;5550037;32;34979;-63
2024/01/26 02:19:36;;;;;;;16.23;5.12;;;;;;;3.47;100.00;101028.50;5549980;32;34152;-63
2024/01/26 02:22:39;;;;;;;16.00;4.10;;;;;;;3.46;100.00;101037.28;5550031;32;34029;-63
2024/01/26 02:25:41;;;;;;;15.52;4.65;;;;;;;3.32;100.00;101040.87;5549996;32;34056;-62
2024/01/26 02:28:44;;;;;;;19.05;4.75;;;;;;;3.25;100.00;101049.25;5549997;32;34043;-63
2024/01/26 02:31:47;;;;;;;17.62;4.55;;;;;;;3.43;100.00;101048.84;5549872;32;35139;-63
2024/01/26 02:34:50;;;;;;;14.15;4.25;;;;;;;3.51;100.00;101035.19;5549928;32;34176;-64
2024/01/26 02:37:52;;;;;;;16.85;4.68;;;;;;;3.49;100.00;101050.19;5549959;32;34037;-63
2024/01/26 02:40:55;;;;;;;16.00;4.03;;;;;;;3.49;100.00;101037.06;5549838;32;34957;-63
2024/01/26 02:43:58;;;;;;;17.60;4.05;;;;;;;3.54;100.00;101031.50;5550038;32;34847;-64
2024/01/26 02:47:01;;;;;;;15.35;4.25;;;;;;;3.64;100.00;101033.37;5550001;32;34117;-62
2024/01/26 02:50:05;;;;;;;16.73;4.28;;;;;;;3.67;100.00;101038.44;5549918;32;34027;-63
2024/01/26 02:53:08;;;;;;;15.07;3.87;;;;;;;3.58;100.00;101041.72;5549902;32;34267;-63
2024/01/26 02:56:10;;;;;;;17.60;4.37;;;;;;;3.43;100.00;101038.38;5549853;32;34033;-63
2024/01/26 02:59:13;;;;;;;16.75;4.37;;;;;;;3.43;100.00;101041.00;5549526;32;34779;-63
2024/01/26 03:02:16;;;;;;;15.18;4.00;;;;;;;3.61;100.00;101051.13;5548706;32;34749;-63
2024/01/26 03:05:19;;;;;;;15.80;4.00;;;;;;;3.63;100.00;101041.38;5549673;32;34218;-63
2024/01/26 03:08:21;;;;;;;12.82;3.67;;;;;;;3.58;100.00;101040.87;5549677;32;34105;-63
2024/01/26 03:11:37;;;;;;;13.27;3.53;;;;;;;3.72;100.00;101052.06;5549563;32;34942;-63
2024/01/26 03:14:41;;;;;;;14.07;3.87;;;;;;;3.79;100.00;101061.19;5548793;32;34135;-63
2024/01/26 03:17:44;;;;;;;14.73;4.10;;;;;;;3.75;100.00;101046.59;5549583;32;34109;-63
2024/01/26 03:20:50;;;;;;;13.65;3.78;;;;;;;3.73;100.00;101050.25;5549917;32;34051;-63
2024/01/26 03:23:52;;;;;;;11.88;3.70;;;;;;;3.74;100.00;101065.91;5549527;32;34158;-63
2024/01/26 03:26:55;;;;;;;13.55;3.55;;;;;;;3.74;100.00;101062.44;5549496;32;34735;-63
2024/01/26 03:29:58;;;;;;;15.25;3.80;;;;;;;3.68;100.00;101060.28;5549413;32;34077;-63
2024/01/26 03:33:01;;;;;;;12.13;3.80;;;;;;;3.74;100.00;101051.94;5549414;32;34245;-64
2024/01/26 03:36:05;;;;;;;12.00;3.75;;;;;;;3.68;100.00;101029.59;5549369;32;34006;-64
2024/01/26 03:39:09;;;;;;;14.00;3.50;;;;;;;3.63;100.00;101023.84;5549220;32;34016;-63
2024/01/26 03:42:12;;;;;;;12.80;3.55;;;;;;;3.58;100.00;101031.22;5549003;32;34274;-63
2024/01/26 03:45:15;;;;;;;15.02;3.90;;;;;;;3.61;100.00;101023.13;5549314;32;34676;-63
2024/01/26 03:48:18;;;;;;;12.07;3.62;;;;;;;3.60;100.00;101015.34;5549124;32;34007;-63
2024/01/26 03:51:21;;;;;;;16.80;3.60;;;;;;;3.52;100.00;101033.41;5549010;32;34793;-64
2024/01/26 03:54:24;;;;;;;15.98;3.85;;;;;;;3.50;100.00;101039.59;5549174;32;34057;-63
2024/01/26 03:57:27;;;;;;;12.88;3.87;;;;;;;3.45;100.00;101035.62;5548373;32;34080;-64
2024/01/26 04:00:29;;;;;;;15.30;3.60;;;;;;;3.42;100.00;101054.19;5549305;32;34034;-63
2024/01/26 04:03:32;;;;;;;10.63;3.20;;;;;;;3.36;100.00;101060.69;5549283;32;34996;-63
2024/01/26 04:06:42;;;;;;;13.20;3.90;;;;;;;3.36;100.00;101068.56;5548930;32;34681;-63
2024/01/26 04:09:45;;;;;;;10.35;3.20;;;;;;;3.20;100.00;101083.66;5549113;32;35034;-63
2024/01/26 04:12:47;;;;;;;16.83;4.18;;;;;;;3.21;100.00;101084.50;5549429;32;34208;-63
2024/01/26 04:15:50;;;;;;;15.38;3.62;;;;;;;3.15;100.00;101106.72;5551125;32;33904;-63
2024/01/26 04:18:53;;;;;;;15.07;3.58;;;;;;;3.02;100.00;101114.56;5551179;32;35084;-64
2024/01/26 04:21:56;;;;;;;14.87;4.18;;;;;;;3.14;100.00;101125.19;5551268;32;34217;-63
2024/01/26 04:24:59;;;;;;;12.37;3.30;;;;;;;3.11;100.00;101118.34;5551069;32;34109;-63
2024/01/26 04:28:02;;;;;;;14.73;4.03;;;;;;;3.24;100.00;101129.72;5551142;32;34736;-63
2024/01/26 04:31:05;;;;;;;16.98;4.12;;;;;;;3.21;100.00;101137.78;5550254;32;34135;-64
2024/01/26 04:34:09;;;;;;;12.65;3.50;;;;;;;3.17;100.00;101136.31;5550388;32;34420;-63
2024/01/26 04:37:12;;;;;;;13.90;3.40;;;;;;;2.96;100.00;101149.03;5550982;32;35543;-63
2024/01/26 04:40:14;;;;;;;14.32;3.75;;;;;;;3.01;100.00;101149.56;5550031;32;34719;-63
2024/01/26 04:43:18;;;;;;;15.77;3.97;;;;;;;3.18;100.00;101153.72;5550842;32;34398;-63
2024/01/26 04:46:21;;;;;;;13.75;3.78;;;;;;;3.36;100.00;101154.28;5550235;32;33944;-63
2024/01/26 04:49:24;;;;;;;13.30;3.45;;;;;;;3.41;100.00;101160.88;5550937;32;35139;-63
2024/01/26 04:52:28;;;;;;;11.05;3.45;;;;;;;3.32;100.00;101160.66;5550840;32;34035;-63
2024/01/26 04:55:31;;;;;;;18.15;5.37;;;;;;;3.39;100.00;101156.69;5550757;32;34069;-63
2024/01/26 04:58:34;;;;;;;14.70;3.22;;;;;;;3.42;100.00;101157.34;5550723;32;34111;-64
2024/01/26 05:01:36;;;;;;;15.75;3.60;;;;;;;3.46;100.00;101157.97;5550715;32;34681;-63
2024/01/26 05:04:39;;;;;;;11.98;3.75;;;;;;;3.54;100.00;101142.53;5550761;32;34093;-63
2024/01/26 05:07:42;;;;;;;11.57;3.65;;;;;;;3.48;100.00;101156.09;5549929;32;34149;-64
2024/01/26 05:10:45;;;;;;;13.10;3.83;;;;;;;3.42;100.00;101153.88;5550715;32;35062;-63
2024/01/26 05:13:47;;;;;;;17.87;4.10;;;;;;;3.42;100.00;101153.88;5550432;32;34233;-63
2024/01/26 05:16:50;;;;;;;11.77;3.22;;;;;;;3.47;100.00;101154.41;5550546;32;34691;-63
2024/01/26 05:19:54;;;;;;;14.85;3.92;;;;;;;3.46;100.00;101164.03;5550578;32;34116;-64
2024/01/26 05:22:57;;;;;;;15.77;4.32;;;;;;;3.47;100.00;101162.25;5549769;32;34129;-63
2024/01/26 05:26:00;;;;;;;14.02;4.00;;;;;;;3.49;100.00;101165.59;5550404;32;35500;-63
2024/01/26 05:29:03;;;;;;;11.70;3.83;;;;;;;3.41;100.00;101173.16;5550588;32;34796;-64
2024/01/26 05:32:06;;;;;;;12.32;3.40;;;;;;;3.42;100.00;101177.47;5550056;32;34009;-64
2024/01/26 05:35:09;;;;;;;13.10;3.80;;;;;;;3.42;100.00;101165.19;5550612;32;34216;-64
2024/01/26 05:38:12;;;;;;;16.58;4.10;;;;;;;3.33;100.00;101172.84;5550322;32;34300;-64
2024/01/26 05:41:15;;;;;;;14.68;4.05;;;;;;;3.31;100.00;101165.06;5550725;32;34848;-64
2024/01/26 05:44:18;;;;;;;12.75;4.03;;;;;;;3.37;100.00;101158.56;5550500;32;35080;-64
2024/01/26 05:47:21;;;;;;;15.35;4.07;;;;;;;3.33;100.00;101157.09;5549593;32;34753;-63
2024/01/26 05:50:23;;;;;;;15.13;4.37;;;;;;;3.36;100.00;101152.50;5550306;32;34132;-63
2024/01/26 05:53:26;;;;;;;14.40;3.97;;;;;;;3.39;100.00;101151.44;5550363;32;33967;-64
2024/01/26 05:56:29;;;;;;;15.48;4.00;;;;;;;3.44;100.00;101146.72;5550300;32;34814;-65
2024/01/26 05:59:32;;;;;;;13.25;4.25;;;;;;;3.41;100.00;101141.69;5550235;32;34148;-64
2024/01/26 06:02:35;;;;;;;11.60;3.60;;;;;;;3.47;100.00;101149.16;5550576;32;34073;-64
2024/01/26 06:05:38;;;;;;;10.38;3.12;;;;;;;3.42;100.00;101151.25;5550250;32;34641;-63
2024/01/26 06:08:43;;;;;;;13.38;3.80;;;;;;;3.49;100.00;101139.38;5549953;32;34316;-64
2024/01/26 06:11:47;;;;;;;12.68;3.90;;;;;;;3.53;100.00;101156.63;5549980;32;33978;-63
2024/01/26 06:14:50;;;;;;;13.70;3.83;;;;;;;3.62;100.00;101147.28;5549899;32;34049;-63
2024/01/26 06:17:53;;;;;;;10.93;3.58;;;;;;;3.62;100.00;101160.38;5550024;32;34812;-64
2024/01/26 06:20:56;;;;;;;12.37;3.35;;;;;;;3.66;100.00;101156.59;5550074;32;34088;-64
2024/01/26 06:23:59;;;;;;;14.02;3.55;;;;;;;3.65;100.00;101147.06;5549141;32;35265;-64
2024/01/26 06:27:02;;;;;;;13.10;3.47;;;;;;;3.63;100.00;101143.72;5549069;32;34194;-65
2024/01/26 06:30:06;;;;;;;14.85;3.95;;;;;;;3.67;100.00;101146.03;5544738;32;153236;-64
2024/01/26 06:33:08;;;;;;;12.95;3.72;;;;;;;3.67;100.00;101153.88;5549524;32;34173;-64
2024/01/26 06:36:12;;;;;;;14.70;3.62;;;;;;;3.69;100.00;101138.00;5549500;32;34136;-64
2024/01/26 06:39:15;;;;;;;13.85;3.75;;;;;;;3.66;100.00;101159.22;5549247;32;34128;-64
2024/01/26 06:42:25;;;;;;;14.52;3.87;;;;;;;3.70;100.00;101171.19;5549672;32;34732;-63
2024/01/26 06:45:27;;;;;;;11.60;3.45;;;;;;;3.66;100.00;101177.59;5548982;32;34924;-63
2024/01/26 06:48:30;;;;;;;14.43;3.83;;;;;;;3.68;100.00;101178.34;5549598;32;34171;-63
2024/01/26 06:51:33;;;;;;;12.45;3.78;;;;;;;3.69;100.00;101182.63;5549597;32;34145;-63
2024/01/26 06:54:38;;;;;;;12.52;3.78;;;;;;;3.67;100.00;101184.53;5549362;32;34982;-63
2024/01/26 06:57:40;;;;;;;13.73;3.85;;;;;;;3.71;100.00;101184.22;5549852;32;33798;-64
2024/01/26 07:00:43;;;;;;;15.40;4.55;;;;;;;3.71;100.00;101181.59;5549433;32;34697;-64
2024/01/26 07:03:46;;;;;;;15.05;3.70;;;;;;;3.76;100.00;101189.16;5549074;32;34069;-63
2024/01/26 07:06:49;;;;;;;14.73;3.87;;;;;;;3.71;100.00;101173.72;5549668;32;33983;-65
2024/01/26 07:09:52;;;;;;;12.13;3.70;;;;;;;3.76;100.00;101176.88;5549579;32;34761;-64
2024/01/26 07:12:55;;;;;;;13.98;3.70;;;;;;;3.79;100.00;101179.28;5549586;32;34701;-63
2024/01/26 07:15:58;;;;;;;14.57;3.90;;;;;;;3.79;100.00;101184.53;5549535;32;34363;-64
2024/01/26 07:19:01;;;;;;;13.80;4.30;;;;;;;3.79;100.00;101189.78;5549393;32;34286;-64
2024/01/26 07:22:05;;;;;;;14.73;4.00;;;;;;;3.73;100.00;101192.81;5549386;32;34079;-65
2024/01/26 07:25:11;;;;;;;12.82;3.60;;;;;;;3.79;100.00;101186.31;5549393;32;33474;-64
2024/01/26 07:28:14;;;;;;;15.23;4.10;;;;;;;3.81;100.00;101193.16;5548403;32;34246;-63
2024/01/26 07:31:17;;;;;;;13.10;4.00;;;;;;;3.84;100.00;101192.09;5548719;32;35023;-64
2024/01/26 07:34:21;;;;;;;13.52;4.32;;;;;;;3.84;100.00;101206.06;5549262;32;34281;-64
2024/01/26 07:37:24;;;;;;;17.05;4.22;;;;;;;3.81;100.00;101198.41;5548487;32;34119;-63
2024/01/26 07:40:26;;;;;;;17.55;4.65;;;;;;;3.79;100.00;101213.41;5548941;32;34177;-64
2024/01/26 07:43:29;;;;;;;14.10;4.00;;;;;;;3.75;100.00;101211.09;5548900;32;35042;-63
2024/01/26 07:46:32;;;;;;;13.90;4.45;;;;;;;3.74;100.00;101210.25;5547603;32;34439;-64
2024/01/26 07:49:35;;;;;;;15.52;4.47;;;;;;;3.75;100.00;101218.97;5549096;32;34188;-64
2024/01/26 07:52:39;;;;;;;14.57;4.75;;;;;;;3.72;100.00;101221.81;5548777;32;34735;-63
2024/01/26 07:55:43;;;;;;;13.62;4.62;;;;;;;3.71;100.00;101241.09;5549192;32;34330;-63
2024/01/26 07:58:45;;;;;;;19.25;4.90;;;;;;;3.78;100.00;101237.94;5548743;32;34770;-63
2024/01/26 08:01:49;;;;;;;17.25;4.80;;;;;;;3.84;100.00;101261.16;5548717;32;34012;-64
2024/01/26 08:04:53;;;;;;;14.95;4.32;;;;;;;3.83;100.00;101246.34;5547988;32;34034;-67
2024/01/26 08:07:59;;;;;;;15.95;4.53;;;;;;;3.82;100.00;101252.56;5548533;32;33928;-64
2024/01/26 08:11:02;;;;;;;14.77;4.80;;;;;;;3.84;100.00;101239.31;5548559;32;34111;-65
2024/01/26 08:14:05;;;;;;;15.05;4.70;;;;;;;3.86;100.00;101246.16;5548509;32;34139;-64
2024/01/26 08:17:08;;;;;;;15.57;4.95;;;;;;;3.93;100.00;101238.69;5548288;32;34211;-64
2024/01/26 08:20:11;;;;;;;12.82;4.32;;;;;;;3.99;100.00;101238.28;5547737;32;34668;-64
2024/01/26 08:23:15;;;;;;;14.90;4.43;;;;;;;3.97;100.00;101234.91;5548416;32;34634;-64
2024/01/26 08:26:18;;;;;;;13.65;4.75;;;;;;;4.02;100.00;101224.13;5548399;32;34800;-66
2024/01/26 08:29:24;;;;;;;14.48;4.70;;;;;;;4.05;100.00;101227.38;5548350;32;34183;-64
2024/01/26 08:32:27;;;;;;;14.38;4.90;;;;;;;4.09;100.00;101228.00;5548288;32;33981;-66
2024/01/26 08:35:30;;;;;;;15.65;4.68;;;;;;;4.13;100.00;101229.47;5548037;32;34106;-65
2024/01/26 08:38:34;;;;;;;17.52;4.37;;;;;;;4.14;100.00;101220.66;5547658;32;33967;-65
2024/01/26 08:41:39;;;;;;;15.30;4.62;;;;;;;4.22;100.00;101213.06;5548189;32;34106;-65
2024/01/26 08:44:42;;;;;;;17.65;5.20;;;;;;;4.27;100.00;101213.59;5548309;32;34270;-65
2024/01/26 08:47:45;;;;;;;13.38;4.93;;;;;;;4.33;100.00;101224.50;5547924;32;34056;-65
2024/01/26 08:50:48;;;;;;;14.70;4.25;;;;;;;4.34;100.00;101226.19;5548167;32;34075;-65
2024/01/26 08:53:51;;;;;;;17.95;4.30;;;;;;;4.43;100.00;101231.75;5547918;32;34793;-62
2024/01/26 08:56:56;;;;;;;15.93;4.72;;;;;;;4.52;100.00;101224.06;5547764;32;34543;-64
2024/01/26 09:00:00;;;;;;;13.77;4.30;;;;;;;4.54;100.00;101237.09;5550630;32;34077;-64
2024/01/26 09:03:04;;;;;;;14.80;4.32;;;;;;;4.66;100.00;101244.09;5550866;32;34102;-65
2024/01/26 09:06:08;;;;;;;12.45;4.03;;;;;;;4.68;100.00;101250.94;5550793;32;34059;-64
2024/01/26 09:09:12;;;;;;;14.25;4.55;;;;;;;4.72;100.00;101260.28;5550957;32;33968;-64
2024/01/26 09:12:15;;;;;;;14.43;4.15;;;;;;;4.79;100.00;101260.69;5550640;32;33974;-64
2024/01/26 09:15:17;;;;;;;14.43;4.15;;;;;;;4.80;100.00;101252.69;5550557;32;34026;-64
2024/01/26 09:18:20;;;;;;;12.75;4.07;;;;;;;4.92;100.00;101250.97;5550499;32;34354;-63
2024/01/26 09:21:23;;;;;;;10.40;3.75;;;;;;;4.96;100.00;101246.31;5550783;32;34098;-63
2024/01/26 09:24:26;;;;;;;12.93;4.03;;;;;;;4.97;100.00;101242.75;5549944;32;34033;-63
2024/01/26 09:27:30;;;;;;;12.90;4.12;;;;;;;5.03;100.00;101221.28;5550636;32;34829;-63
2024/01/26 09:30:33;;;;;;;11.12;3.65;;;;;;;5.00;100.00;101243.34;5536830;32;34026;-65
2024/01/26 09:33:35;;;;;;;13.70;4.00;;;;;;;5.09;100.00;101252.38;5550464;32;34052;-65
2024/01/26 09:36:39;;;;;;;15.82;3.90;;;;;;;5.10;100.00;101254.06;5550489;32;34044;-64
2024/01/26 09:39:42;;;;;;;10.75;3.95;;;;;;;5.15;100.00;101247.50;5550484;32;33942;-64
2024/01/26 09:42:45;;;;;;;14.30;4.07;;;;;;;5.20;100.00;101247.19;5549678;32;34069;-64
2024/01/26 09:45:52;;;;;;;13.80;3.70;;;;;;;5.28;100.00;101251.88;5549688;32;34774;-65
2024/01/26 09:48:57;;;;;;;11.55;3.53;;;;;;;5.39;100.00;101265.91;5550208;32;35419;-65
2024/01/26 09:52:00;;;;;;;13.00;3.70;;;;;;;5.40;100.00;101274.66;5550422;32;34070;-64
2024/01/26 09:55:05;;;;;;;12.52;3.92;;;;;;;5.38;100.00;101271.28;5549603;32;34007;-65
2024/01/26 09:58:09;;;;;;;12.27;3.70;;;;;;;5.42;100.00;101256.97;5549623;32;34419;-65
2024/01/26 10:01:19;;;;;;;13.68;3.90;;;;;;;5.47;100.00;101254.84;5550104;32;34071;-64
2024/01/26 10:04:22;;;;;;;15.40;3.67;;;;;;;5.45;100.00;101254.94;5550136;32;33913;-64
2024/01/26 10:07:25;;;;;;;16.00;4.12;;;;;;;5.52;100.00;101248.25;5550080;32;34213;-63
2024/01/26 10:10:28;;;;;;;12.00;3.67;;;;;;;5.54;100.00;101246.38;5549497;32;34691;-64
2024/01/26 10:13:31;;;;;;;11.60;3.80;;;;;;;5.59;100.00;101249.50;5549876;32;34208;-65
2024/01/26 10:16:34;;;;;;;14.63;3.58;;;;;;;5.72;100.00;101245.94;5550044;32;34703;-64
2024/01/26 10:19:37;;;;;;;12.40;3.22;;;;;;;5.78;100.00;101242.84;5549153;32;34489;-64
2024/01/26 10:22:42;;;;;;;12.05;3.33;;;;;;;5.77;100.00;101242.00;5549843;32;34049;-64
2024/01/26 10:25:45;;;;;;;10.80;3.60;;;;;;;5.77;100.00;101235.88;5549910;32;33986;-63
2024/01/26 10:28:50;;;;;;;14.25;3.72;;;;;;;5.85;100.00;101238.81;5549893;32;34222;-64
2024/01/26 10:31:54;;;;;;;14.00;3.42;;;;;;;5.78;100.00;101234.94;5549757;32;34102;-63
2024/01/26 10:35:05;;;;;;;11.52;3.60;;;;;;;5.88;100.00;101228.91;5550211;32;34021;-64
2024/01/26 10:38:10;;;;;;;13.77;3.78;;;;;;;6.05;100.00;101233.69;5550139;32;34698;-64
2024/01/26 10:41:19;;;;;;;13.60;3.70;;;;;;;6.06;100.00;101231.91;5550066;32;34666;-64
2024/01/26 10:44:23;;;;;;;11.05;3.28;;;;;;;6.12;100.00;101229.66;5549914;32;34295;-66
2024/01/26 10:47:27;;;;;;;9.13;3.00;;;;;;;6.20;100.00;101236.09;5549718;32;34809;-64
2024/01/26 10:50:30;;;;;;;10.90;3.05;;;;;;;6.21;100.00;101228.09;5549607;32;34269;-63
2024/01/26 10:53:33;;;;;;;12.00;3.10;;;;;;;6.29;100.00;101232.78;5550000;32;34737;-64
2024/01/26 10:56:37;;;;;;;8.55;2.53;;;;;;;6.41;100.00;101229.16;5549586;32;34041;-64
2024/01/26 10:59:43;;;;;;;8.60;2.45;;;;;;;6.41;100.00;101230.00;5549466;32;34089;-64
2024/01/26 11:02:46;;;;;;;9.02;2.28;;;;;;;6.41;100.00;101232.66;5549604;32;34495;-64
2024/01/26 11:05:50;;;;;;;8.82;2.40;;;;;;;6.41;100.00;101231.81;5549659;32;34697;-64
2024/01/26 11:08:59;;;;;;;12.60;2.70;;;;;;;6.44;99.87;101221.84;5549502;32;35038;-64
2024/01/26 11:12:26;;;;;;;10.63;2.75;;;;;;;6.59;98.55;101238.25;5549522;32;33931;-64
2024/01/26 11:15:30;;;;;;;10.07;2.87;;;;;;;6.62;100.00;101231.94;5549737;32;34816;-65
2024/01/26 11:18:37;;;;;;;11.52;3.00;;;;;;;6.61;100.00;101228.44;5549546;32;34715;-64
2024/01/26 11:21:44;;;;;;;9.98;3.00;;;;;;;6.63;100.00;101217.78;5548145;32;35268;-65
2024/01/26 11:24:47;;;;;;;12.32;3.45;;;;;;;6.72;100.00;101206.50;5549519;32;34043;-65
2024/01/26 11:27:58;;;;;;;14.30;3.62;;;;;;;6.74;100.00;101215.12;5549549;32;35597;-64
2024/01/26 11:31:02;;;;;;;8.60;2.92;;;;;;;6.88;100.00;101209.56;5549450;32;34623;-64
2024/01/26 11:34:16;;;;;;;11.82;3.05;;;;;;;6.95;100.00;101203.69;5549539;32;34728;-64
2024/01/26 11:37:19;;;;;;;11.48;2.80;;;;;;;7.00;100.00;101200.69;5549520;32;34069;-65
2024/01/26 11:40:25;;;;;;;10.48;3.25;;;;;;;7.10;100.00;101191.06;5549471;32;34441;-64
2024/01/26 11:43:29;;;;;;;11.23;3.00;;;;;;;7.13;100.00;101192.59;5549231;32;34110;-64
2024/01/26 11:46:34;;;;;;;11.70;2.70;;;;;;;7.09;100.00;101199.06;5549329;32;34738;-65
2024/01/26 11:49:39;;;;;;;9.40;3.10;;;;;;;7.06;100.00;101201.97;5549032;32;34813;-64
2024/01/26 11:52:42;;;;;;;10.75;3.17;;;;;;;7.23;100.00;101198.78;5548980;32;35369;-64
2024/01/26 11:55:45;;;;;;;9.45;2.80;;;;;;;7.25;96.90;101195.06;5549066;32;34234;-66
2024/01/26 11:58:51;;;;;;;9.88;3.05;;;;;;;7.28;97.71;101191.31;5549014;32;34929;-65
2024/01/26 12:01:57;;;;;;;9.40;2.50;;;;;;;7.25;97.18;101196.88;5548622;32;35026;-64
2024/01/26 12:05:00;;;;;;;9.95;2.47;;;;;;;7.32;94.38;101192.75;5548341;32;35133;-65
2024/01/26 12:08:05;;;;;;;11.40;2.70;;;;;;;7.44;94.18;101186.47;5549076;32;34253;-64
2024/01/26 12:11:10;;;;;;;9.60;2.90;;;;;;;7.49;93.68;101167.59;5548922;32;34063;-64
2024/01/26 12:14:13;;;;;;;11.43;2.97;;;;;;;7.50;89.43;101153.44;5547818;32;34092;-64
2024/01/26 12:17:16;;;;;;;8.90;2.47;;;;;;;7.50;88.81;101148.16;5548540;32;34000;-64
2024/01/26 12:20:19;;;;;;;10.70;2.47;;;;;;;7.71;84.59;101139.22;5548404;32;34093;-64
2024/01/26 12:23:22;;;;;;;12.18;2.25;;;;;;;8.63;79.37;101143.50;5547514;32;34326;-64
2024/01/26 12:26:25;;;;;;;7.68;2.60;;;;;;;9.09;76.59;101145.50;5548036;32;34122;-65
2024/01/26 12:29:29;;;;;;;10.00;2.40;;;;;;;9.51;72.97;101153.09;5548626;32;34195;-64
2024/01/26 12:32:32;;;;;;;10.55;2.40;;;;;;;9.50;73.25;101143.50;5548446;32;34031;-65
2024/01/26 12:35:39;;;;;;;7.50;2.08;;;;;;;9.89;71.71;101146.88;5550822;32;34388;-65
2024/01/26 12:38:42;;;;;;;9.65;2.55;;;;;;;9.77;70.30;101137.44;5550905;32;34084;-65
2024/01/26 12:41:45;;;;;;;8.15;3.40;;;;;;;9.47;72.19;101130.53;5550421;32;34041;-65
2024/01/26 12:44:48;;;;;;;10.20;2.37;;;;;;;9.64;71.47;101139.56;5550867;32;34046;-65
2024/01/26 12:47:51;;;;;;;8.68;2.40;;;;;;;9.66;71.46;101133.16;5550801;32;34131;-65
2024/01/26 12:50:54;;;;;;;9.63;2.60;;;;;;;9.65;71.30;101117.38;5550574;32;34833;-64
2024/01/26 12:53:57;;;;;;;9.50;2.50;;;;;;;9.49;70.97;101121.47;5550511;32;34163;-66
2024/01/26 12:57:00;;;;;;;7.18;2.28;;;;;;;9.41;70.73;101123.16;5550701;32;34648;-65
2024/01/26 13:00:03;;;;;;;10.15;2.50;;;;;;;9.37;72.30;101119.13;5550812;32;35025;-65
2024/01/26 13:03:06;;;;;;;8.23;2.37;;;;;;;9.40;72.18;101103.78;5550777;32;34105;-64
2024/01/26 13:06:10;;;;;;;9.07;2.40;;;;;;;8.95;73.15;101089.50;5550656;32;34688;-63
2024/01/26 13:09:15;;;;;;;9.98;2.60;;;;;;;8.86;72.44;101090.34;5550670;32;34129;-67
2024/01/26 13:12:18;;;;;;;11.73;2.87;;;;;;;8.98;72.70;101092.69;5549732;32;34140;-65
2024/01/26 13:15:21;;;;;;;8.60;2.60;;;;;;;9.46;71.65;101089.97;5550409;32;34211;-66
2024/01/26 13:18:27;;;;;;;11.73;2.90;;;;;;;9.03;72.68;101089.62;5550463;32;33974;-65
2024/01/26 13:21:34;;;;;;;12.20;2.80;;;;;;;8.72;74.91;101097.69;5550769;32;34808;-65
2024/01/26 13:24:37;;;;;;;10.43;2.80;;;;;;;9.05;74.27;101098.28;5550399;32;35208;-67
2024/01/26 13:27:39;;;;;;;7.22;2.50;;;;;;;8.93;73.65;101092.28;5550637;32;33973;-64
2024/01/26 13:30:42;;;;;;;9.68;2.55;;;;;;;8.70;75.38;101080.31;5550014;32;34230;-65
2024/01/26 13:33:45;;;;;;;10.68;2.90;;;;;;;8.39;74.73;101084.84;5550458;32;34744;-63
2024/01/26 13:36:48;;;;;;;13.00;3.03;;;;;;;8.14;76.27;101085.31;5550696;32;34741;-66
2024/01/26 13:39:51;;;;;;;10.98;2.90;;;;;;;8.17;76.12;101082.41;5550291;32;34787;-65
2024/01/26 13:42:54;;;;;;;9.32;2.67;;;;;;;7.92;77.14;101090.81;5550485;32;34174;-64
2024/01/26 13:45:57;;;;;;;13.62;3.00;;;;;;;7.83;77.62;101095.09;5549274;32;35019;-64
2024/01/26 13:49:02;;;;;;;10.10;2.40;;;;;;;7.70;78.13;101094.47;5550260;32;34312;-64
2024/01/26 13:52:05;;;;;;;9.57;2.42;;;;;;;7.74;75.80;101083.53;5549534;32;34181;-65
2024/01/26 13:55:08;;;;;;;8.07;2.08;;;;;;;7.89;75.37;101077.87;5550158;32;34359;-64
2024/01/26 13:58:11;;;;;;;8.55;2.20;;;;;;;7.82;74.93;101083.69;5550101;32;34234;-64
2024/01/26 14:01:14;;;;;;;10.73;2.37;;;;;;;7.97;74.53;101088.59;5549877;32;34221;-63
2024/01/26 14:04:19;;;;;;;13.02;2.20;;;;;;;7.99;74.16;101076.12;5550101;32;34048;-65
2024/01/26 14:07:22;;;;;;;7.45;2.12;;;;;;;8.24;71.77;101080.87;5550142;32;34179;-65